Time;durP1;ratioP1;P1;durP2;ratioP2;P2;SDS_P1;SDS_P2;PMS_P1;PMS_P2;Temp;Humidity;BMP_temperature;BMP_pressure;BME280_temperature;BME280_humidity;BME280_pressure;Samples;Min_cycle;Max_cycle;Signal;HPM_P1;HPM_P2
2022/12/26 00:00:43;;;;;;;3.10;2.75;;;;;;;-2.30;65.30;100685.69;5105658;27;20138;-73
2022/12/26 00:03:08;;;;;;;3.50;2.60;;;;;;;-2.30;65.23;100686.56;5071979;27;20035;-79
2022/12/26 00:05:36;;;;;;;4.05;2.42;;;;;;;-2.27;65.64;100675.25;5088476;27;20599;-75
2022/12/26 00:08:00;;;;;;;7.93;3.67;;;;;;;-2.26;65.51;100688.28;5116729;27;20041;-74
2022/12/26 00:10:25;;;;;;;3.67;2.90;;;;;;;-2.21;65.88;100676.09;5116723;27;20043;-79
2022/12/26 00:12:49;;;;;;;5.60;2.90;;;;;;;-2.24;65.25;100685.66;5118780;27;20095;-75
2022/12/26 00:15:14;;;;;;;6.43;2.78;;;;;;;-2.20;66.00;100684.78;5110120;27;20497;-73
2022/12/26 00:17:38;;;;;;;5.78;3.38;;;;;;;-2.21;65.76;100696.09;5098899;27;20039;-71
2022/12/26 00:20:03;;;;;;;5.65;3.38;;;;;;;-2.25;65.46;100684.78;5118956;27;20050;-71
2022/12/26 00:22:28;;;;;;;10.30;3.83;;;;;;;-2.24;66.07;100690.88;5117009;27;20885;-76
2022/12/26 00:24:53;;;;;;;6.68;3.38;;;;;;;-2.24;65.61;100685.66;5118304;27;20403;-72
2022/12/26 00:27:17;;;;;;;4.63;3.80;;;;;;;-2.24;65.90;100688.28;5113547;27;20031;-73
2022/12/26 00:29:42;;;;;;;6.25;3.15;;;;;;;-2.27;65.62;100688.31;5114783;27;20137;-72
2022/12/26 00:32:06;;;;;;;6.85;3.30;;;;;;;-2.31;65.77;100697.88;5098087;27;20485;-76
2022/12/26 00:34:31;;;;;;;6.78;3.65;;;;;;;-2.32;65.94;100705.72;5114204;27;20144;-72
2022/12/26 00:36:55;;;;;;;11.00;3.97;;;;;;;-2.39;66.12;100696.16;5104804;27;20038;-68
2022/12/26 00:39:20;;;;;;;8.85;2.75;;;;;;;-2.41;66.41;100697.91;5117404;27;20046;-73
2022/12/26 00:41:45;;;;;;;7.25;3.90;;;;;;;-2.47;66.14;100710.97;5119554;27;20046;-73
2022/12/26 00:44:09;;;;;;;5.95;3.47;;;;;;;-2.49;66.76;100718.81;5101267;27;20047;-74
2022/12/26 00:46:34;;;;;;;12.88;3.88;;;;;;;-2.42;67.01;100714.44;5120371;27;20046;-72
2022/12/26 00:48:59;;;;;;;8.57;3.35;;;;;;;-2.42;66.98;100717.94;5119527;27;20043;-73
2022/12/26 00:51:23;;;;;;;8.10;3.17;;;;;;;-2.38;67.04;100709.22;5118253;27;20034;-75
2022/12/26 00:53:48;;;;;;;4.28;3.00;;;;;;;-2.36;66.71;100714.41;5100369;27;20049;-74
2022/12/26 00:56:13;;;;;;;9.50;3.70;;;;;;;-2.44;66.55;100713.56;5100196;27;20046;-74
2022/12/26 00:58:40;;;;;;;5.55;3.80;;;;;;;-2.39;66.29;100720.53;5118544;27;20043;-77
2022/12/26 01:01:29;;;;;;;7.55;3.10;;;;;;;-2.34;66.39;100712.69;5117228;27;20087;-79
2022/12/26 01:03:54;;;;;;;6.38;4.03;;;;;;;-2.42;66.87;100715.31;5113976;27;20046;-72
2022/12/26 01:06:18;;;;;;;6.47;4.07;;;;;;;-2.39;66.64;100719.66;5116745;27;20044;-71
2022/12/26 01:08:43;;;;;;;7.10;3.55;;;;;;;-2.37;66.84;100716.16;5061935;27;20038;-73
2022/12/26 01:11:12;;;;;;;3.88;3.13;;;;;;;-2.32;66.58;100718.78;5088596;27;20038;-73
2022/12/26 01:13:37;;;;;;;4.13;3.15;;;;;;;-2.27;66.95;100717.91;5066107;27;20035;-72
2022/12/26 01:16:03;;;;;;;4.97;3.33;;;;;;;-2.22;67.32;100715.25;5072130;27;20881;-72
2022/12/26 01:18:28;;;;;;;6.45;3.65;;;;;;;-2.18;67.17;100714.41;5097609;27;20125;-73
2022/12/26 01:20:58;;;;;;;5.35;3.40;;;;;;;-2.11;67.17;100710.00;5116458;27;20121;-73
2022/12/26 01:23:22;;;;;;;7.32;3.33;;;;;;;-2.06;67.29;100711.75;5116067;27;20043;-73
2022/12/26 01:25:47;;;;;;;8.82;4.00;;;;;;;-2.05;66.93;100710.88;5116160;27;20038;-71
2022/12/26 01:28:12;;;;;;;7.15;4.10;;;;;;;-2.09;65.78;100711.75;5116005;27;20117;-72
2022/12/26 01:30:36;;;;;;;5.20;3.63;;;;;;;-2.13;65.39;100727.41;5115518;27;20038;-72
2022/12/26 01:33:01;;;;;;;6.65;3.75;;;;;;;-2.15;65.83;100722.22;5097577;27;20079;-71
2022/12/26 01:35:25;;;;;;;6.45;3.08;;;;;;;-2.12;66.57;100721.31;5097841;27;20046;-71
2022/12/26 01:37:50;;;;;;;3.25;2.88;;;;;;;-2.12;66.15;100719.59;5099654;27;20038;-72
2022/12/26 01:40:15;;;;;;;6.40;3.10;;;;;;;-2.09;65.76;100716.09;5116954;27;20038;-73
2022/12/26 01:42:40;;;;;;;4.57;3.05;;;;;;;-2.04;65.97;100725.69;5098090;27;20069;-69
2022/12/26 01:45:27;;;;;;;4.18;2.92;;;;;;;-1.92;66.48;100716.94;5116350;27;20136;-73
2022/12/26 01:47:58;;;;;;;4.63;2.55;;;;;;;-1.92;66.26;100715.16;5117167;27;20083;-72
2022/12/26 01:50:26;;;;;;;4.38;2.35;;;;;;;-1.91;65.45;100716.91;5097146;27;20069;-74
2022/12/26 01:52:52;;;;;;;3.58;2.38;;;;;;;-1.89;65.23;100712.53;5097253;27;20401;-76
2022/12/26 01:55:20;;;;;;;6.50;2.17;;;;;;;-1.86;65.41;100728.22;5075565;27;20453;-78
2022/12/26 01:57:52;;;;;;;1.90;1.45;;;;;;;-1.84;65.26;100717.75;5078010;28;20047;-75
2022/12/26 02:00:17;;;;;;;3.28;1.92;;;;;;;-1.85;65.01;100719.50;5053467;27;20497;-73
2022/12/26 02:05:34;;;;;;;3.33;2.35;;;;;;;-1.86;64.62;100725.59;5099010;27;20050;-76
2022/12/26 02:08:22;;;;;;;2.33;1.77;;;;;;;-1.79;65.23;100722.94;5116036;27;20039;-73
2022/12/26 02:10:54;;;;;;;2.85;2.30;;;;;;;-1.87;64.46;100718.63;5116996;27;20125;-76
2022/12/26 02:13:19;;;;;;;3.63;2.05;;;;;;;-1.94;64.10;100716.06;5081346;27;20041;-76
2022/12/26 02:15:45;;;;;;;1.98;1.63;;;;;;;-1.92;64.50;100711.69;5098787;27;20039;-75
2022/12/26 02:18:10;;;;;;;2.72;1.88;;;;;;;-1.92;64.21;100703.88;5117050;27;20031;-75
2022/12/26 02:20:56;;;;;;;3.50;2.55;;;;;;;-1.86;63.89;100699.47;5116725;27;20050;-77
2022/12/26 02:23:31;;;;;;;1.83;1.45;;;;;;;-1.87;63.85;100696.84;5081113;27;20039;-77
2022/12/26 02:26:46;;;;;;;4.70;2.28;;;;;;;-1.80;64.08;100693.31;5118369;27;20044;-74
2022/12/26 02:29:12;;;;;;;2.85;2.50;;;;;;;-1.83;63.89;100709.91;5015135;28;20101;-75
2022/12/26 02:32:05;;;;;;;3.60;1.95;;;;;;;-1.81;63.70;100707.31;5034040;28;20617;-73
2022/12/26 02:34:49;;;;;;;2.03;1.60;;;;;;;-1.80;63.80;100703.78;4975836;28;20095;-72
2022/12/26 02:37:13;;;;;;;6.63;2.25;;;;;;;-1.81;63.66;100706.44;4979575;28;21144;-74
2022/12/26 02:39:46;;;;;;;4.40;2.00;;;;;;;-1.79;63.75;100713.38;4979239;28;20558;-79
2022/12/26 02:42:32;;;;;;;4.28;1.83;;;;;;;-1.77;63.89;100708.13;4981050;28;20149;-74
2022/12/26 02:48:20;;;;;;;3.70;2.20;;;;;;;-1.79;64.24;100709.88;4978205;28;20530;-74
2022/12/26 03:14:44;;;;;;;4.00;2.15;;;;;;;-1.91;63.43;100726.47;5017862;28;20140;-77
2022/12/26 03:17:20;;;;;;;2.42;1.63;;;;;;;-1.95;63.32;100720.41;5017338;28;20892;-76
2022/12/26 03:19:59;;;;;;;2.25;1.70;;;;;;;-1.96;63.05;100723.91;5017296;28;20056;-72
2022/12/26 03:22:42;;;;;;;4.82;1.40;;;;;;;-1.90;63.68;100723.88;5015151;28;20869;-83
2022/12/26 03:28:02;;;;;;;2.10;1.73;;;;;;;-1.96;63.42;100723.91;4993259;28;20146;-70
2022/12/26 03:34:16;;;;;;;2.70;2.13;;;;;;;-1.97;63.61;100718.69;5043894;27;20051;-66
2022/12/26 03:35:54;;;;;;;3.38;2.53;;;;;;;-2.00;63.53;100721.28;5118103;27;20091;-64
2022/12/26 03:38:24;;;;;;;3.85;2.17;;;;;;;-2.05;63.24;100726.56;5118315;27;20058;-63
2022/12/26 04:19:52;;;;;;;6.55;1.75;;;;;;;-2.06;63.29;100722.19;5014065;28;20045;-62
2022/12/26 04:44:45;;;;;;;4.85;2.30;;;;;;;-2.04;62.11;100743.09;5117271;27;20046;-64
2022/12/26 04:47:10;;;;;;;2.58;1.77;;;;;;;-2.03;61.93;100735.22;5117000;27;20065;-64
2022/12/26 04:52:53;;;;;;;3.35;1.73;;;;;;;-2.01;62.19;100743.06;5117149;27;20046;-64
2022/12/26 04:55:14;;;;;;;2.08;1.60;;;;;;;-1.98;62.00;100762.22;5117032;27;20035;-63
2022/12/26 04:57:38;;;;;;;3.45;1.98;;;;;;;-1.99;61.49;100747.41;5063846;28;20062;-64
2022/12/26 05:00:04;;;;;;;2.85;1.58;;;;;;;-1.99;61.72;100747.41;5094639;27;20059;-64
2022/12/26 05:10:39;;;;;;;3.42;1.90;;;;;;;-1.88;62.41;100768.28;5096047;27;20823;-65
2022/12/26 05:13:03;;;;;;;2.38;2.10;;;;;;;-1.85;62.48;100773.50;5077550;27;20443;-63
2022/12/26 05:28:40;;;;;;;2.67;2.45;;;;;;;-1.83;62.61;100788.31;5096307;27;20117;-64
2022/12/26 05:29:09;;;;;;;5.20;3.55;;;;;;;-1.64;61.55;100764.72;5094319;27;20033;-62
2022/12/26 05:31:34;;;;;;;5.72;3.58;;;;;;;-1.63;62.39;100759.50;5095801;27;20039;-63
2022/12/26 05:34:04;;;;;;;6.70;3.80;;;;;;;-1.63;61.23;100761.22;5081505;27;20093;-62
2022/12/26 05:36:38;;;;;;;5.25;3.78;;;;;;;-1.57;62.50;100763.81;5090569;27;20118;-64
2022/12/26 05:39:03;;;;;;;3.87;3.13;;;;;;;-1.60;62.13;100774.31;5094366;27;20049;-63
2022/12/26 05:41:28;;;;;;;4.35;3.75;;;;;;;-1.66;61.32;100767.34;5077123;27;20045;-64
2022/12/26 05:43:52;;;;;;;6.30;4.30;;;;;;;-1.63;61.78;100761.22;5095974;27;20046;-63
2022/12/26 05:46:17;;;;;;;3.78;3.38;;;;;;;-1.61;62.14;100772.56;5094370;27;20031;-63
2022/12/26 05:48:42;;;;;;;7.18;4.03;;;;;;;-1.60;62.62;100769.06;5094491;27;20035;-62
2022/12/26 05:51:07;;;;;;;5.93;4.25;;;;;;;-1.58;62.55;100772.56;5095009;27;20039;-63
2022/12/26 05:53:32;;;;;;;5.28;3.65;;;;;;;-1.67;61.69;100778.66;5074815;28;20117;-63
2022/12/26 05:56:05;;;;;;;7.45;4.18;;;;;;;-1.60;62.53;100771.69;5090335;27;20044;-63
2022/12/26 05:58:29;;;;;;;10.77;4.57;;;;;;;-1.62;62.58;100770.81;5090313;27;20753;-68
2022/12/26 06:01:07;;;;;;;7.22;4.22;;;;;;;-1.60;61.91;100769.06;5086838;27;20378;-64
2022/12/26 06:03:32;;;;;;;5.82;3.80;;;;;;;-1.69;61.30;100771.72;5096984;27;20118;-63
2022/12/26 06:05:57;;;;;;;8.02;4.25;;;;;;;-1.79;61.37;100764.75;5084848;28;20058;-64
2022/12/26 06:08:21;;;;;;;7.38;3.80;;;;;;;-1.86;62.38;100767.41;5094553;28;20031;-63
2022/12/26 06:10:46;;;;;;;9.18;4.38;;;;;;;-1.98;62.01;100772.69;5067452;28;20047;-63
2022/12/26 06:13:11;;;;;;;8.13;3.90;;;;;;;-1.97;62.67;100774.41;5090513;28;20066;-62
2022/12/26 06:15:37;;;;;;;7.57;4.65;;;;;;;-2.02;62.88;100780.50;5095766;28;20077;-62
2022/12/26 06:18:02;;;;;;;5.72;3.78;;;;;;;-2.01;62.93;100780.50;5096795;27;20524;-63
2022/12/26 06:20:27;;;;;;;6.30;4.20;;;;;;;-1.96;63.35;100789.22;5100326;27;20035;-64
2022/12/26 06:22:51;;;;;;;5.53;3.60;;;;;;;-1.96;62.73;100776.16;5102107;28;20505;-64
2022/12/26 06:25:17;;;;;;;5.47;3.58;;;;;;;-1.89;63.23;100777.00;5095438;28;20793;-66
2022/12/26 06:27:42;;;;;;;5.70;3.67;;;;;;;-1.85;63.17;100784.84;5093967;28;20047;-71
2022/12/26 06:30:07;;;;;;;5.63;3.25;;;;;;;-1.82;62.83;100789.19;5095727;27;20038;-71
2022/12/26 06:32:32;;;;;;;5.72;3.53;;;;;;;-1.77;63.04;100789.16;5096405;28;20034;-70
2022/12/26 06:34:57;;;;;;;5.57;3.72;;;;;;;-1.74;62.95;100794.38;5094832;28;20034;-72
2022/12/26 06:37:21;;;;;;;4.97;3.22;;;;;;;-1.73;62.72;100797.00;5095908;28;20046;-70
2022/12/26 06:39:46;;;;;;;4.55;3.30;;;;;;;-1.73;63.11;100801.34;5089663;28;20054;-71
2022/12/26 06:42:11;;;;;;;5.15;3.33;;;;;;;-1.71;62.94;100810.06;5088150;28;20405;-72
2022/12/26 06:44:35;;;;;;;5.22;3.25;;;;;;;-1.72;62.75;100810.94;5097658;28;20038;-71
2022/12/26 06:47:00;;;;;;;6.95;4.10;;;;;;;-1.70;62.73;100817.03;5096671;28;20042;-71
2022/12/26 06:49:25;;;;;;;6.72;3.40;;;;;;;-1.71;62.23;100821.41;5094992;28;20489;-73
2022/12/26 06:51:49;;;;;;;5.15;3.13;;;;;;;-1.67;62.62;100820.50;5096860;28;20558;-72
2022/12/26 06:54:14;;;;;;;7.15;3.80;;;;;;;-1.67;62.33;100823.09;5095325;28;20578;-72
2022/12/26 06:56:38;;;;;;;6.13;3.30;;;;;;;-1.64;62.37;100828.34;5096179;27;20047;-71
2022/12/26 06:59:05;;;;;;;6.72;3.33;;;;;;;-1.60;62.23;100830.09;5100006;27;20053;-71
2022/12/26 07:01:32;;;;;;;8.30;4.18;;;;;;;-1.62;62.00;100838.78;5099320;27;20133;-72
2022/12/26 07:03:57;;;;;;;4.15;3.28;;;;;;;-1.59;62.64;100838.78;5099513;27;20046;-65
2022/12/26 07:06:28;;;;;;;6.18;4.32;;;;;;;-1.50;62.96;100838.75;5117655;27;20066;-65
2022/12/26 07:09:00;;;;;;;5.88;3.25;;;;;;;-1.51;62.33;100831.78;5117688;27;20141;-68
2022/12/26 07:11:27;;;;;;;4.72;3.28;;;;;;;-1.47;62.50;100839.59;5117974;27;20708;-63
2022/12/26 07:13:53;;;;;;;10.77;3.80;;;;;;;-1.47;61.87;100836.13;5119528;27;20099;-64
2022/12/26 07:16:18;;;;;;;5.65;3.50;;;;;;;-1.43;62.23;100832.63;5118822;27;20083;-64
2022/12/26 07:18:42;;;;;;;6.13;3.88;;;;;;;-1.37;62.45;100823.91;5118660;27;20050;-64
2022/12/26 07:21:14;;;;;;;5.50;3.53;;;;;;;-1.34;61.51;100823.84;5119838;27;20034;-65
2022/12/26 07:23:39;;;;;;;6.13;4.55;;;;;;;-1.36;62.46;100826.50;5132727;27;20042;-63
2022/12/26 07:26:04;;;;;;;4.63;3.50;;;;;;;-1.31;62.75;100829.09;5134356;27;20042;-63
2022/12/26 07:28:29;;;;;;;6.68;3.95;;;;;;;-1.29;61.52;100827.34;5130517;27;20068;-63
2022/12/26 07:30:56;;;;;;;5.32;3.40;;;;;;;-1.25;61.75;100829.94;5091088;27;20521;-64
2022/12/26 07:33:20;;;;;;;5.47;3.75;;;;;;;-1.22;61.38;100845.59;5125392;27;20100;-64
2022/12/26 07:35:45;;;;;;;6.30;3.92;;;;;;;-1.18;61.73;100823.78;5126913;27;20053;-62
2022/12/26 07:38:11;;;;;;;4.40;3.42;;;;;;;-1.12;61.86;100836.84;5137476;27;20079;-64
2022/12/26 07:40:35;;;;;;;7.35;4.45;;;;;;;-1.12;61.70;100828.97;5141011;27;20058;-65
2022/12/26 07:43:00;;;;;;;5.90;3.60;;;;;;;-1.07;61.71;100835.94;5141362;27;20081;-64
2022/12/26 07:45:25;;;;;;;15.18;4.10;;;;;;;-1.05;61.67;100831.59;5140769;27;20046;-64
2022/12/26 07:47:56;;;;;;;8.05;4.63;;;;;;;-1.00;61.83;100830.66;5122051;27;20049;-65
2022/12/26 07:50:23;;;;;;;9.90;4.20;;;;;;;-0.97;62.02;100835.03;5106792;27;20520;-64
2022/12/26 07:52:47;;;;;;;6.15;3.97;;;;;;;-0.96;60.94;100840.25;5119751;27;20038;-64
2022/12/26 07:55:12;;;;;;;7.20;3.63;;;;;;;-1.04;60.27;100834.19;5137530;27;20029;-65
2022/12/26 07:57:37;;;;;;;5.68;3.75;;;;;;;-1.12;59.84;100842.06;5116461;27;20058;-63
2022/12/26 08:00:04;;;;;;;5.20;3.83;;;;;;;-1.13;60.08;100842.09;5119301;27;20039;-65
2022/12/26 08:02:36;;;;;;;7.75;4.65;;;;;;;-1.19;59.48;100840.38;5117491;27;20080;-63
2022/12/26 08:05:01;;;;;;;7.38;4.57;;;;;;;-1.17;60.14;100840.38;5119286;27;20038;-64
2022/12/26 08:07:27;;;;;;;6.55;4.80;;;;;;;-1.20;60.18;100854.31;5119113;27;20042;-63
2022/12/26 08:09:52;;;;;;;10.07;4.22;;;;;;;-1.19;60.39;100852.56;5117817;27;20037;-64
2022/12/26 08:12:20;;;;;;;12.75;5.50;;;;;;;-1.35;59.90;100862.22;5115073;27;20039;-63
2022/12/26 08:14:45;;;;;;;10.80;4.25;;;;;;;-1.42;60.67;100855.28;5095625;28;20047;-63
2022/12/26 08:17:09;;;;;;;8.30;5.18;;;;;;;-1.42;60.96;100860.50;5116923;27;20081;-64
2022/12/26 08:19:34;;;;;;;6.10;4.00;;;;;;;-1.37;61.15;100858.78;5115263;27;20035;-65
2022/12/26 08:21:58;;;;;;;8.75;4.43;;;;;;;-1.33;61.43;100857.84;5098437;27;20039;-66
2022/12/26 08:24:23;;;;;;;7.00;3.63;;;;;;;-1.31;61.19;100856.13;5106559;27;20038;-64
2022/12/26 08:26:48;;;;;;;6.43;3.72;;;;;;;-1.26;61.68;100850.88;5116162;27;20039;-64
2022/12/26 08:29:12;;;;;;;7.18;4.10;;;;;;;-1.25;60.84;100853.50;5116567;27;20062;-64
2022/12/26 08:31:37;;;;;;;8.10;4.03;;;;;;;-1.29;60.05;100848.25;5115727;27;20043;-64
2022/12/26 08:34:02;;;;;;;7.43;4.47;;;;;;;-1.31;60.45;100848.28;5115521;27;20034;-63
2022/12/26 08:36:27;;;;;;;7.43;3.85;;;;;;;-1.26;61.63;100859.59;5113026;27;20054;-63
2022/12/26 08:38:52;;;;;;;8.25;4.88;;;;;;;-1.27;61.19;100851.75;5115282;27;20050;-63
2022/12/26 08:41:16;;;;;;;10.07;4.82;;;;;;;-1.25;61.43;100848.25;5109221;27;20046;-64
2022/12/26 08:43:41;;;;;;;8.40;4.07;;;;;;;-1.24;61.33;100851.75;5098353;27;20046;-65
2022/12/26 08:46:08;;;;;;;7.35;4.60;;;;;;;-1.23;61.32;100848.22;5098573;27;20039;-64
2022/12/26 08:48:36;;;;;;;10.02;5.57;;;;;;;-1.22;61.50;100845.59;5098485;27;20042;-64
2022/12/26 08:51:04;;;;;;;9.38;4.60;;;;;;;-1.18;61.54;100852.56;5096768;27;20039;-63
2022/12/26 08:53:31;;;;;;;5.78;4.65;;;;;;;-1.16;61.19;100840.38;5098078;27;20051;-66
2022/12/26 08:55:56;;;;;;;11.05;5.03;;;;;;;-1.14;61.44;100837.75;5097096;27;20041;-65
2022/12/26 08:58:21;;;;;;;10.80;5.18;;;;;;;-1.13;61.38;100845.56;5112648;27;20050;-64
2022/12/26 09:00:45;;;;;;;8.32;4.72;;;;;;;-1.11;61.18;100841.19;5117510;27;20121;-64
2022/12/26 09:03:10;;;;;;;10.18;5.45;;;;;;;-1.10;61.45;100839.44;5117536;27;20091;-65
2022/12/26 09:05:35;;;;;;;7.57;5.07;;;;;;;-1.08;60.78;100835.06;5099411;27;20043;-65
2022/12/26 09:07:59;;;;;;;7.55;4.88;;;;;;;-1.08;61.05;100836.81;5117477;27;20042;-73
2022/12/26 09:10:24;;;;;;;7.78;4.25;;;;;;;-1.14;60.40;100833.38;5118031;27;20027;-73
2022/12/26 09:12:48;;;;;;;8.75;4.00;;;;;;;-1.13;61.11;100848.16;5099161;27;20077;-72
2022/12/26 09:15:13;;;;;;;5.47;3.40;;;;;;;-1.11;61.09;100840.31;5117582;27;20524;-72
2022/12/26 09:17:38;;;;;;;7.10;3.92;;;;;;;-1.17;60.64;100842.97;5099388;27;20047;-73
2022/12/26 09:20:03;;;;;;;8.50;3.63;;;;;;;-1.25;59.69;100837.78;5117379;27;20496;-72
2022/12/26 09:25:11;;;;;;;9.52;3.92;;;;;;;-1.55;59.48;100843.13;5115375;27;20043;-72
2022/12/26 09:27:36;;;;;;;6.00;3.50;;;;;;;-1.57;60.99;100842.25;5104733;27;20042;-71
2022/12/26 09:30:00;;;;;;;6.28;4.20;;;;;;;-1.72;60.65;100845.81;5116870;27;20073;-71
2022/12/26 09:32:25;;;;;;;5.13;3.97;;;;;;;-1.82;60.18;100844.09;5117064;27;20072;-73
2022/12/26 09:34:49;;;;;;;6.22;3.90;;;;;;;-1.74;61.06;100847.53;5105203;27;20043;-72
2022/12/26 09:37:14;;;;;;;7.13;4.30;;;;;;;-1.80;61.06;100838.81;5095513;27;20477;-73
2022/12/26 09:39:39;;;;;;;5.90;3.92;;;;;;;-1.88;60.70;100833.63;5099839;27;20081;-74
2022/12/26 09:42:16;;;;;;;4.68;3.72;;;;;;;-1.86;60.49;100834.50;5064796;28;20138;-71
2022/12/26 09:44:59;;;;;;;6.10;4.50;;;;;;;-1.77;60.99;100834.47;5119948;27;20053;-73
2022/12/26 09:47:30;;;;;;;7.93;4.18;;;;;;;-1.63;61.08;100830.09;5103498;27;20069;-75
2022/12/26 09:50:17;;;;;;;5.13;3.72;;;;;;;-1.58;60.51;100832.69;5120112;27;20035;-72
2022/12/26 09:52:49;;;;;;;6.97;4.22;;;;;;;-1.52;60.86;100830.03;5121565;27;20074;-72
2022/12/26 09:55:23;;;;;;;8.20;3.95;;;;;;;-1.45;60.95;100826.53;5102748;27;20061;-72
2022/12/26 09:57:51;;;;;;;6.47;4.30;;;;;;;-1.38;61.10;100820.41;5118453;27;20059;-73
2022/12/26 10:00:20;;;;;;;7.63;5.00;;;;;;;-1.42;60.61;100821.28;5120358;27;20042;-77
2022/12/26 10:02:57;;;;;;;8.40;5.05;;;;;;;-1.55;60.60;100819.59;5101450;27;20038;-72
2022/12/26 10:05:27;;;;;;;6.05;4.68;;;;;;;-1.56;61.07;100829.19;5119710;27;20201;-72
2022/12/26 10:08:40;;;;;;;6.22;4.38;;;;;;;-1.48;61.19;100818.72;5099108;27;20038;-77
2022/12/26 10:11:15;;;;;;;7.85;5.25;;;;;;;-1.45;60.60;100821.28;5013272;28;20094;-72
2022/12/26 10:13:55;;;;;;;10.63;5.10;;;;;;;-1.40;61.01;100819.53;5015904;28;20080;-74
2022/12/26 10:16:51;;;;;;;6.55;4.57;;;;;;;-1.37;60.83;100821.28;5016690;28;20048;-74
2022/12/26 10:19:30;;;;;;;6.20;3.95;;;;;;;-1.43;60.16;100814.31;4973798;28;20046;-73
2022/12/26 10:22:23;;;;;;;6.45;4.03;;;;;;;-1.35;60.38;100816.88;4974311;28;20058;-73
2022/12/26 10:24:50;;;;;;;11.93;5.30;;;;;;;-1.44;60.20;100820.41;4935949;28;20512;-74
2022/12/26 10:27:17;;;;;;;5.90;4.13;;;;;;;-1.64;59.93;100817.88;4931761;28;20035;-73
2022/12/26 10:29:48;;;;;;;5.28;4.50;;;;;;;-1.67;60.72;100824.84;4929216;28;20050;-72
2022/12/26 10:32:43;;;;;;;10.38;4.53;;;;;;;-1.61;61.00;100804.81;4937373;28;20042;-71
2022/12/26 10:35:46;;;;;;;8.80;5.18;;;;;;;-1.49;60.77;100796.91;4936213;28;20138;-72
2022/12/26 10:38:22;;;;;;;7.30;3.92;;;;;;;-1.46;60.27;100806.47;4909940;28;20042;-72
2022/12/26 10:40:51;;;;;;;7.40;4.93;;;;;;;-1.44;60.50;100802.09;4935165;28;20637;-72
2022/12/26 10:43:30;;;;;;;5.65;4.25;;;;;;;-1.43;60.55;100797.75;4936735;28;20042;-70
2022/12/26 10:46:19;;;;;;;5.65;4.32;;;;;;;-1.42;59.97;100802.09;4935807;28;20047;-71
2022/12/26 10:48:45;;;;;;;5.45;4.50;;;;;;;-1.38;60.16;100803.84;4977954;28;20095;-71
2022/12/26 10:51:11;;;;;;;8.68;4.95;;;;;;;-1.50;59.67;100802.16;4993803;28;20077;-73
2022/12/26 10:53:40;;;;;;;9.13;5.22;;;;;;;-1.52;60.62;100799.53;4977041;28;20049;-72
2022/12/26 10:56:06;;;;;;;7.40;4.32;;;;;;;-1.50;60.55;100796.91;4994051;28;20053;-71
2022/12/26 10:58:35;;;;;;;6.80;4.57;;;;;;;-1.48;60.57;100803.03;5038281;28;20139;-72
2022/12/26 11:01:35;;;;;;;8.07;4.68;;;;;;;-1.46;60.59;100801.25;5073419;27;20051;-73
2022/12/26 11:04:21;;;;;;;11.93;5.20;;;;;;;-1.40;61.39;100803.84;5114418;27;20034;-72
2022/12/26 11:06:46;;;;;;;7.78;5.93;;;;;;;-1.64;61.00;100790.88;5070233;27;20031;-64
2022/12/26 11:09:41;;;;;;;7.20;5.07;;;;;;;-1.71;61.60;100800.50;5096683;27;20045;-65
2022/12/26 11:12:33;;;;;;;8.73;5.45;;;;;;;-1.76;61.76;100794.38;5103134;27;20041;-65
2022/12/26 11:15:02;;;;;;;7.18;4.75;;;;;;;-1.66;60.97;100800.44;5103262;27;20080;-65
2022/12/26 11:17:30;;;;;;;8.23;5.45;;;;;;;-1.94;61.06;100804.91;5102315;27;20035;-65
2022/12/26 11:20:31;;;;;;;9.80;4.93;;;;;;;-1.82;61.30;100812.72;5100882;27;20046;-63
2022/12/26 11:23:32;;;;;;;8.25;5.13;;;;;;;-1.99;61.71;100807.50;5002102;28;20051;-65
2022/12/26 11:25:59;;;;;;;8.23;5.75;;;;;;;-2.20;61.16;100792.75;5035281;28;20044;-64
2022/12/26 11:28:33;;;;;;;9.15;5.90;;;;;;;-2.27;61.21;100796.25;5035040;28;20132;-64
2022/12/26 11:31:18;;;;;;;8.00;5.15;;;;;;;-2.35;61.70;100802.34;5035088;28;20063;-65
2022/12/26 11:33:45;;;;;;;10.73;5.53;;;;;;;-2.23;61.08;100799.72;5034954;28;20091;-65
2022/12/26 11:36:22;;;;;;;7.97;5.65;;;;;;;-2.44;61.83;100790.16;5035110;28;20078;-64
2022/12/26 11:39:01;;;;;;;8.30;6.38;;;;;;;-2.54;62.44;100798.00;5034751;28;20040;-65
2022/12/26 11:41:31;;;;;;;7.13;5.07;;;;;;;-2.52;62.43;100789.31;5035118;28;20574;-63
2022/12/26 11:44:20;;;;;;;8.98;5.47;;;;;;;-2.40;62.44;100799.75;5035880;28;20910;-64
2022/12/26 11:46:50;;;;;;;8.63;5.35;;;;;;;-2.46;62.40;100799.72;5019054;28;20044;-64
2022/12/26 11:49:32;;;;;;;8.68;5.65;;;;;;;-2.37;62.76;100793.66;5035177;28;20036;-65
2022/12/26 11:51:59;;;;;;;8.50;4.13;;;;;;;-2.34;62.13;100798.84;5034386;28;20079;-64
2022/12/26 11:54:29;;;;;;;5.63;3.80;;;;;;;-2.44;62.48;100787.56;5034108;28;20040;-65
2022/12/26 11:57:31;;;;;;;7.65;4.63;;;;;;;-2.62;62.40;100798.88;5073443;27;20058;-64
2022/12/26 12:00:16;;;;;;;8.25;4.88;;;;;;;-2.66;63.08;100806.69;5116877;27;20030;-68
2022/12/26 12:02:40;;;;;;;;;;;;;;;-2.51;63.24;100809.31;5118505;27;20043;-65
2022/12/26 12:05:12;;;;;;;;;;;;;;;-2.43;62.46;100804.97;5099663;27;19922;-67
2022/12/26 12:07:55;;;;;;;5.55;3.92;;;;;;;-2.66;62.04;100807.56;5117185;27;19918;-67
2022/12/26 12:10:51;;;;;;;6.68;4.28;;;;;;;-2.76;62.40;100807.56;5098140;27;20043;-69
2022/12/26 12:13:40;;;;;;;3.95;3.25;;;;;;;-2.85;62.88;100803.22;5064942;27;20045;-68
2022/12/26 12:16:09;;;;;;;5.32;3.92;;;;;;;-2.90;62.45;100798.84;5077054;27;20382;-69
2022/12/26 12:18:49;;;;;;;6.13;4.07;;;;;;;-3.02;62.80;100803.16;5080981;27;20039;-70
2022/12/26 12:21:23;;;;;;;5.40;3.45;;;;;;;-3.04;63.33;100799.69;5081298;27;20035;-69
2022/12/26 12:24:18;;;;;;;6.60;4.50;;;;;;;-2.84;62.35;100804.09;5098843;27;20496;-68
2022/12/26 12:27:23;;;;;;;4.22;3.60;;;;;;;-2.85;62.00;100803.22;5064057;27;20047;-69
2022/12/26 12:29:56;;;;;;;10.27;3.88;;;;;;;-3.14;62.54;100803.13;5016889;28;20045;-70
2022/12/26 12:32:41;;;;;;;3.97;3.13;;;;;;;-3.19;63.03;100799.66;5016949;28;20048;-67
2022/12/26 12:35:26;;;;;;;5.88;3.15;;;;;;;-3.17;63.41;100803.16;5033244;28;20036;-68
2022/12/26 12:38:05;;;;;;;6.18;3.30;;;;;;;-3.19;63.09;100798.78;5014246;28;20037;-67
2022/12/26 12:40:49;;;;;;;8.95;3.88;;;;;;;-3.09;63.61;100805.78;5016678;28;20047;-68
2022/12/26 12:43:40;;;;;;;8.07;5.00;;;;;;;-3.07;63.18;100807.53;5033620;28;20051;-68
2022/12/26 12:46:34;;;;;;;7.32;4.00;;;;;;;-3.12;63.98;100810.97;5031787;28;20187;-72
2022/12/26 12:49:01;;;;;;;6.80;3.88;;;;;;;-3.15;63.83;100800.53;5028964;28;20097;-69
2022/12/26 12:52:01;;;;;;;5.50;3.63;;;;;;;-3.02;63.54;100797.06;5016268;28;20036;-67
2022/12/26 12:54:34;;;;;;;6.68;4.18;;;;;;;-3.12;63.74;100792.72;5033132;28;20481;-68
2022/12/26 12:57:18;;;;;;;7.15;3.15;;;;;;;-3.18;63.98;100795.31;5015283;28;20491;-68
2022/12/26 13:00:11;;;;;;;8.18;3.90;;;;;;;-3.11;64.33;100797.94;5033058;28;20052;-66
2022/12/26 13:03:01;;;;;;;4.63;3.42;;;;;;;-3.10;64.64;100790.97;5032998;28;20036;-67
2022/12/26 13:06:03;;;;;;;5.53;3.70;;;;;;;-3.13;64.52;100794.44;5073785;27;20039;-69
2022/12/26 13:08:36;;;;;;;5.50;3.55;;;;;;;-2.99;64.34;100784.91;5098465;27;20038;-66
2022/12/26 13:11:16;;;;;;;6.95;3.60;;;;;;;-2.94;63.33;100791.03;5116964;27;20034;-68
2022/12/26 13:13:47;;;;;;;5.75;4.07;;;;;;;-3.20;63.35;100790.09;5064004;27;20035;-70
2022/12/26 13:16:23;;;;;;;5.20;3.78;;;;;;;-3.15;63.84;100790.09;5116802;27;20038;-72
2022/12/26 13:18:59;;;;;;;5.65;3.92;;;;;;;-3.22;64.31;100804.88;5100071;27;20054;-71
2022/12/26 13:21:25;;;;;;;9.02;4.43;;;;;;;-3.27;63.88;100797.91;5099782;27;20070;-73
2022/12/26 13:26:45;;;;;;;8.10;4.05;;;;;;;-3.18;63.73;100803.16;5118516;27;20129;-71
2022/12/26 13:29:16;;;;;;;5.40;3.72;;;;;;;-3.17;63.32;100812.72;5099635;27;20585;-74
2022/12/26 13:31:41;;;;;;;5.72;3.92;;;;;;;-3.17;62.85;100804.88;5116293;27;20506;-68
2022/12/26 13:34:15;;;;;;;11.70;5.13;;;;;;;-3.42;63.83;100802.19;5116720;27;20385;-75
2022/12/26 13:36:45;;;;;;;7.82;5.32;;;;;;;-3.42;64.36;100807.41;5097584;27;20044;-77
2022/12/26 13:39:24;;;;;;;8.20;5.07;;;;;;;-3.40;64.62;100810.91;5116090;27;20050;-72
2022/12/26 13:44:39;;;;;;;6.57;4.68;;;;;;;-3.34;63.71;100808.31;5092004;27;20034;-69
2022/12/26 13:47:04;;;;;;;6.68;4.28;;;;;;;-3.41;63.98;100800.47;5100336;27;20034;-70
2022/12/26 13:49:35;;;;;;;6.57;4.45;;;;;;;-3.55;64.50;100800.41;5117023;27;20095;-68